createdAt,value
2018-07-23T00:01:08.612Z,15.97
2018-07-23T00:03:47.871Z,15.90
2018-07-23T00:06:21.604Z,15.79
2018-07-23T00:09:05.860Z,15.81
2018-07-23T00:11:42.597Z,15.76
2018-07-23T00:14:17.128Z,15.72
2018-07-23T00:16:51.860Z,15.69
2018-07-23T00:19:33.716Z,15.63
2018-07-23T00:22:06.240Z,15.57
2018-07-23T00:24:39.727Z,15.49
2018-07-23T00:27:15.936Z,15.44
2018-07-23T00:29:48.691Z,15.50
2018-07-23T00:32:22.708Z,15.45
2018-07-23T00:34:55.457Z,15.39
2018-07-23T00:37:29.193Z,15.43
2018-07-23T00:40:05.545Z,15.33
2018-07-23T00:42:38.922Z,15.27
2018-07-23T00:45:14.195Z,15.19
2018-07-23T00:47:47.494Z,15.10
2018-07-23T00:50:22.160Z,15.05
2018-07-23T00:52:55.709Z,15.04
2018-07-23T00:55:30.150Z,15.03
2018-07-23T00:58:03.076Z,15.02
2018-07-23T01:00:36.636Z,14.97
2018-07-23T01:03:09.443Z,14.91
2018-07-23T01:05:41.912Z,14.87
2018-07-23T01:08:16.124Z,14.81
2018-07-23T01:10:50.621Z,14.75
2018-07-23T01:13:23.118Z,14.77
2018-07-23T01:15:56.768Z,14.70
2018-07-23T01:18:29.724Z,14.66
2018-07-23T01:21:03.124Z,14.69
2018-07-23T01:23:38.112Z,14.86
2018-07-23T01:26:11.087Z,14.87
2018-07-23T01:28:43.508Z,14.88
2018-07-23T01:31:17.373Z,14.94
2018-07-23T01:33:50.287Z,15.02
2018-07-23T01:36:22.814Z,15.07
2018-07-23T01:38:55.284Z,14.94
2018-07-23T01:41:28.141Z,14.77
2018-07-23T01:44:00.645Z,14.63
2018-07-23T01:46:34.621Z,14.56
2018-07-23T01:49:07.408Z,14.54
2018-07-23T01:51:40.664Z,14.54
2018-07-23T01:54:13.215Z,14.48
2018-07-23T01:56:45.960Z,14.45
2018-07-23T01:59:22.724Z,14.42
2018-07-23T02:01:56.019Z,14.50
2018-07-23T02:04:35.599Z,14.52
2018-07-23T02:07:08.364Z,14.43
2018-07-23T02:09:41.076Z,14.30
2018-07-23T02:12:13.967Z,14.20
2018-07-23T02:14:46.752Z,14.13
2018-07-23T02:17:19.485Z,14.08
2018-07-23T02:19:52.087Z,14.15
2018-07-23T02:22:24.892Z,14.07
2018-07-23T02:24:57.786Z,14.14
2018-07-23T02:27:30.450Z,14.07
2018-07-23T02:30:05.811Z,13.98
2018-07-23T02:32:38.711Z,14.00
2018-07-23T02:35:11.204Z,13.92
2018-07-23T02:37:45.152Z,13.88
2018-07-23T02:40:17.994Z,13.86
2018-07-23T02:42:50.588Z,13.81
2018-07-23T02:45:23.434Z,13.77
2018-07-23T02:47:57.448Z,13.75
2018-07-23T02:50:29.967Z,13.84
2018-07-23T02:53:02.543Z,13.77
2018-07-23T02:55:35.273Z,13.73
2018-07-23T02:58:07.901Z,13.68
2018-07-23T03:00:40.477Z,13.67
2018-07-23T03:03:13.280Z,13.64
2018-07-23T03:05:46.085Z,13.61
2018-07-23T03:08:18.861Z,13.73
2018-07-23T03:10:52.301Z,13.80
2018-07-23T03:13:28.332Z,13.71
2018-07-23T03:16:02.663Z,13.75
2018-07-23T03:18:37.048Z,13.68
2018-07-23T03:21:09.706Z,13.60
2018-07-23T03:23:44.029Z,13.69
2018-07-23T03:26:17.040Z,13.78
2018-07-23T03:28:50.860Z,13.66
2018-07-23T03:31:27.555Z,13.58
2018-07-23T03:34:06.488Z,13.52
2018-07-23T03:36:39.072Z,13.48
2018-07-23T03:39:12.660Z,13.46
2018-07-23T03:41:47.289Z,13.45
2018-07-23T03:44:20.012Z,13.43
2018-07-23T03:46:52.419Z,13.54
2018-07-23T03:49:27.272Z,13.50
2018-07-23T03:52:00.286Z,13.48
2018-07-23T03:54:34.483Z,13.48
2018-07-23T03:57:09.076Z,13.47
2018-07-23T03:59:41.652Z,13.56
2018-07-23T04:02:14.360Z,13.49
2018-07-23T04:04:48.586Z,13.55
2018-07-23T04:07:21.255Z,13.52
2018-07-23T04:09:53.893Z,13.55
2018-07-23T04:12:26.929Z,13.61
2018-07-23T04:15:00.646Z,13.68
2018-07-23T04:17:36.362Z,13.88
2018-07-23T04:20:10.520Z,13.89
2018-07-23T04:22:43.381Z,13.86
2018-07-23T04:25:15.831Z,13.79
2018-07-23T04:27:48.574Z,13.76
2018-07-23T04:30:21.283Z,13.80
2018-07-23T04:32:54.300Z,13.84
2018-07-23T04:35:27.532Z,13.87
2018-07-23T04:38:01.163Z,13.93
2018-07-23T04:40:37.641Z,13.97
2018-07-23T04:43:11.501Z,14.03
2018-07-23T04:45:44.714Z,14.11
2018-07-23T04:48:17.207Z,14.24
2018-07-23T04:50:50.077Z,14.35
2018-07-23T04:53:22.603Z,14.41
2018-07-23T04:55:55.492Z,14.48
2018-07-23T04:58:31.836Z,14.65
2018-07-23T05:01:04.552Z,14.86
2018-07-23T05:03:38.637Z,15.02
2018-07-23T05:06:12.693Z,15.12
2018-07-23T05:08:45.574Z,15.20
2018-07-23T05:11:18.048Z,15.27
2018-07-23T05:13:51.012Z,15.49
2018-07-23T05:16:23.445Z,15.70
2018-07-23T05:18:55.932Z,15.83
2018-07-23T05:21:28.850Z,16.02
2018-07-23T05:24:01.509Z,16.15
2018-07-23T05:26:34.128Z,16.24
2018-07-23T05:29:07.360Z,16.37
2018-07-23T05:31:40.446Z,16.54
2018-07-23T05:34:13.059Z,16.76
2018-07-23T05:36:45.500Z,17.04
2018-07-23T05:39:19.472Z,17.32
2018-07-23T05:41:52.087Z,17.62
2018-07-23T05:44:24.617Z,17.81
2018-07-23T05:46:59.302Z,17.96
2018-07-23T05:49:31.821Z,18.09
2018-07-23T05:52:04.428Z,18.20
2018-07-23T05:54:41.569Z,18.34
2018-07-23T05:57:14.348Z,18.48
2018-07-23T05:59:46.868Z,18.62
2018-07-23T06:02:19.805Z,18.74
2018-07-23T06:04:52.457Z,18.86
2018-07-23T06:07:25.912Z,18.99
2018-07-23T06:10:00.684Z,19.12
2018-07-23T06:12:33.742Z,19.30
2018-07-23T06:15:08.384Z,19.60
2018-07-23T06:17:41.233Z,19.98
2018-07-23T06:20:13.877Z,20.41
2018-07-23T06:22:46.409Z,20.86
2018-07-23T06:25:19.196Z,21.28
2018-07-23T06:27:52.630Z,21.67
2018-07-23T06:30:25.176Z,21.95
2018-07-23T06:32:58.236Z,22.21
2018-07-23T06:35:30.735Z,22.24
2018-07-23T06:38:04.461Z,22.18
2018-07-23T06:40:37.352Z,22.22
2018-07-23T06:43:11.451Z,22.14
2018-07-23T06:45:43.896Z,22.17
2018-07-23T06:48:16.733Z,22.19
2018-07-23T06:50:49.239Z,22.25
2018-07-23T06:53:22.672Z,22.19
2018-07-23T06:55:57.391Z,22.12
2018-07-23T06:58:30.980Z,21.94
2018-07-23T07:01:03.476Z,21.92
2018-07-23T07:03:37.007Z,21.82
2018-07-23T07:06:09.427Z,21.82
2018-07-23T07:08:42.695Z,21.77
2018-07-23T07:11:16.300Z,21.79
2018-07-23T07:13:48.865Z,21.85
2018-07-23T07:16:21.587Z,21.82
2018-07-23T07:18:55.446Z,21.85
2018-07-23T07:21:27.879Z,21.87
2018-07-23T07:24:09.987Z,21.99
2018-07-23T07:26:42.633Z,22.04
2018-07-23T07:29:16.108Z,22.05
2018-07-23T07:31:49.838Z,22.23
2018-07-23T07:34:22.256Z,22.38
2018-07-23T07:36:55.957Z,22.42
2018-07-23T07:39:29.352Z,22.56
2018-07-23T07:42:04.657Z,22.68
2018-07-23T07:44:42.565Z,22.83
2018-07-23T07:47:22.347Z,23.05
2018-07-23T07:49:55.173Z,23.27
2018-07-23T07:52:27.531Z,23.97
2018-07-23T07:55:00.324Z,25.11
2018-07-23T07:57:33.929Z,25.86
2018-07-23T08:00:07.501Z,25.79
2018-07-23T08:02:42.173Z,26.10
2018-07-23T08:05:14.752Z,25.92
2018-07-23T08:07:47.309Z,26.15
2018-07-23T08:10:20.665Z,26.26
2018-07-23T08:12:56.920Z,26.14
2018-07-23T08:15:31.602Z,26.81
2018-07-23T08:18:05.135Z,27.14
2018-07-23T08:20:38.152Z,27.18
2018-07-23T08:23:11.132Z,27.21
2018-07-23T08:25:45.140Z,26.86
2018-07-23T08:28:22.523Z,26.69
2018-07-23T08:31:01.779Z,26.62
2018-07-23T08:33:42.775Z,26.46
2018-07-23T08:36:22.560Z,26.81
2018-07-23T08:39:01.731Z,27.17
2018-07-23T08:41:34.380Z,27.16
2018-07-23T08:44:09.357Z,27.28
2018-07-23T08:46:50.019Z,27.60
2018-07-23T08:49:34.788Z,27.49
2018-07-23T08:52:13.000Z,27.70
2018-07-23T08:54:57.822Z,28.13
2018-07-23T08:57:50.749Z,27.91
2018-07-23T09:00:27.621Z,27.77
2018-07-23T09:03:24.413Z,27.70
2018-07-23T09:06:10.997Z,27.52
2018-07-23T09:08:43.649Z,27.08
2018-07-23T09:11:20.294Z,27.60
2018-07-23T09:13:55.339Z,28.42
2018-07-23T09:16:31.868Z,29.08
2018-07-23T09:19:05.832Z,29.20
2018-07-23T09:21:40.086Z,29.26
2018-07-23T09:24:12.600Z,29.38
2018-07-23T09:26:45.866Z,29.05
2018-07-23T09:29:20.639Z,29.19
2018-07-23T09:31:54.110Z,29.19
2018-07-23T09:34:27.097Z,28.82
2018-07-23T09:36:59.824Z,29.01
2018-07-23T09:39:33.547Z,29.60
2018-07-23T09:42:08.253Z,29.39
2018-07-23T09:44:41.379Z,29.23
2018-07-23T09:47:17.149Z,29.72
2018-07-23T09:49:49.613Z,30.23
2018-07-23T09:52:22.337Z,30.15
2018-07-23T09:54:56.160Z,30.82
2018-07-23T09:57:29.623Z,31.02
2018-07-23T10:00:07.531Z,30.79
2018-07-23T10:02:41.408Z,30.73
2018-07-23T10:05:15.497Z,30.02
2018-07-23T10:07:49.142Z,30.51
2018-07-23T10:10:23.224Z,30.69
2018-07-23T10:12:57.669Z,30.13
2018-07-23T10:15:33.754Z,29.96
2018-07-23T10:18:06.823Z,29.46
2018-07-23T10:20:40.425Z,29.44
2018-07-23T10:23:13.254Z,28.97
2018-07-23T10:25:45.821Z,28.72
2018-07-23T10:28:18.339Z,29.25
2018-07-23T10:30:51.734Z,29.06
2018-07-23T10:33:27.492Z,29.14
2018-07-23T10:36:02.300Z,29.33
2018-07-23T10:38:35.659Z,29.57
2018-07-23T10:41:12.314Z,29.98
2018-07-23T10:43:46.180Z,29.97
2018-07-23T10:46:20.103Z,29.98
2018-07-23T10:48:57.112Z,29.94
2018-07-23T10:51:33.974Z,30.42
2018-07-23T10:54:09.546Z,30.62
2018-07-23T10:56:44.985Z,30.99
2018-07-23T10:59:19.632Z,30.54
2018-07-23T11:01:55.656Z,31.04
2018-07-23T11:04:36.629Z,30.18
2018-07-23T11:07:11.840Z,30.10
2018-07-23T11:09:47.005Z,29.03
2018-07-23T11:12:25.984Z,29.03
2018-07-23T11:15:03.587Z,28.71
2018-07-23T11:17:36.765Z,28.81
2018-07-23T11:20:13.599Z,29.44
2018-07-23T11:22:50.183Z,30.04
2018-07-23T11:25:39.084Z,30.56
2018-07-23T11:27:58.571Z,30.48
2018-07-23T11:30:33.611Z,29.49
2018-07-23T11:33:10.067Z,28.91
2018-07-23T11:35:43.036Z,29.16
2018-07-23T11:38:16.046Z,29.68
2018-07-23T11:40:48.522Z,29.58
2018-07-23T11:43:24.300Z,29.87
2018-07-23T11:45:57.019Z,29.90
2018-07-23T11:48:32.256Z,29.95
2018-07-23T11:51:07.625Z,30.79
2018-07-23T11:53:45.673Z,31.45
2018-07-23T11:56:36.311Z,31.23
2018-07-23T11:59:11.658Z,30.50
2018-07-23T12:01:49.771Z,30.61
2018-07-23T12:04:25.475Z,31.26
2018-07-23T12:06:59.321Z,31.67
2018-07-23T12:09:33.855Z,31.57
2018-07-23T12:12:07.908Z,31.75
2018-07-23T12:14:41.172Z,32.15
2018-07-23T12:17:15.495Z,32.20
2018-07-23T12:19:51.143Z,32.10
2018-07-23T12:22:24.219Z,32.29
2018-07-23T12:24:59.620Z,32.12
2018-07-23T12:27:34.316Z,32.21
2018-07-23T12:30:06.975Z,32.47
2018-07-23T12:32:41.538Z,32.56
2018-07-23T12:35:16.084Z,32.76
2018-07-23T12:37:50.198Z,32.27
2018-07-23T12:40:23.456Z,31.64
2018-07-23T12:42:59.474Z,31.26
2018-07-23T12:45:32.000Z,31.54
2018-07-23T12:48:06.589Z,31.83
2018-07-23T12:50:39.111Z,31.61
2018-07-23T12:53:14.948Z,32.03
2018-07-23T12:55:49.570Z,32.15
2018-07-23T12:58:23.260Z,32.04
2018-07-23T13:00:56.060Z,31.74
2018-07-23T13:03:30.686Z,31.62
2018-07-23T13:06:03.270Z,32.00
2018-07-23T13:08:36.465Z,32.26
2018-07-23T13:11:09.303Z,32.66
2018-07-23T13:13:44.712Z,33.17
2018-07-23T13:16:18.283Z,33.75
2018-07-23T13:18:51.851Z,33.87
2018-07-23T13:21:24.587Z,34.57
2018-07-23T13:23:59.224Z,32.78
2018-07-23T13:26:33.626Z,33.43
2018-07-23T13:29:07.855Z,33.86
2018-07-23T13:31:45.576Z,33.79
2018-07-23T13:34:18.306Z,33.09
2018-07-23T13:36:52.386Z,32.97
2018-07-23T13:39:25.717Z,33.59
2018-07-23T13:41:58.944Z,34.31
2018-07-23T13:44:32.461Z,34.90
2018-07-23T13:47:05.582Z,35.23
2018-07-23T13:49:38.959Z,35.38
2018-07-23T13:52:11.533Z,35.76
2018-07-23T13:54:44.364Z,35.42
2018-07-23T13:57:18.777Z,34.38
2018-07-23T13:59:52.384Z,33.70
2018-07-23T14:02:26.640Z,34.45
2018-07-23T14:04:59.173Z,34.42
2018-07-23T14:07:34.288Z,34.41
2018-07-23T14:10:12.061Z,34.02
2018-07-23T14:12:44.704Z,34.52
2018-07-23T14:15:17.617Z,34.18
2018-07-23T14:17:50.427Z,34.30
2018-07-23T14:20:23.138Z,33.90
2018-07-23T14:22:55.627Z,34.26
2018-07-23T14:25:29.215Z,34.87
2018-07-23T14:28:01.914Z,35.57
2018-07-23T14:30:37.190Z,36.31
2018-07-23T14:33:09.873Z,36.50
2018-07-23T14:35:46.032Z,36.11
2018-07-23T14:38:20.165Z,35.20
2018-07-23T14:40:52.883Z,34.14
2018-07-23T14:43:25.475Z,33.76
2018-07-23T14:45:59.626Z,33.98
2018-07-23T14:48:33.676Z,34.42
2018-07-23T14:51:07.460Z,34.96
2018-07-23T14:53:41.760Z,35.39
2018-07-23T14:56:14.488Z,35.06
2018-07-23T14:58:46.850Z,34.72
2018-07-23T15:01:27.091Z,34.91
2018-07-23T15:04:02.273Z,34.75
2018-07-23T15:06:51.156Z,35.15
2018-07-23T15:09:28.452Z,34.42
2018-07-23T15:12:01.285Z,33.91
2018-07-23T15:14:38.482Z,34.07
2018-07-23T15:17:11.206Z,33.11
2018-07-23T15:19:43.867Z,33.26
2018-07-23T15:22:19.737Z,33.92
2018-07-23T15:25:10.245Z,34.31
2018-07-23T15:27:47.075Z,34.74
2018-07-23T15:30:21.424Z,34.26
2018-07-23T15:32:54.888Z,34.88
2018-07-23T15:35:29.055Z,35.12
2018-07-23T15:38:05.628Z,35.19
2018-07-23T15:40:41.673Z,35.55
2018-07-23T15:43:16.808Z,35.91
2018-07-23T15:45:49.553Z,36.14
2018-07-23T15:48:23.336Z,35.59
2018-07-23T15:50:57.921Z,35.30
2018-07-23T15:53:36.619Z,35.43
2018-07-23T15:56:14.869Z,35.25
2018-07-23T15:58:48.411Z,34.95
2018-07-23T16:01:22.634Z,34.94
2018-07-23T16:03:55.859Z,35.24
2018-07-23T16:06:30.454Z,35.51
2018-07-23T16:09:08.527Z,35.52
2018-07-23T16:11:41.295Z,35.21
2018-07-23T16:14:15.996Z,34.72
2018-07-23T16:16:54.345Z,34.53
2018-07-23T16:19:31.365Z,34.87
2018-07-23T16:22:05.144Z,35.33
2018-07-23T16:24:39.472Z,35.80
2018-07-23T16:27:13.365Z,35.62
2018-07-23T16:29:46.834Z,35.52
2018-07-23T16:32:20.187Z,35.51
2018-07-23T16:34:52.656Z,35.43
2018-07-23T16:37:26.155Z,35.16
2018-07-23T16:40:01.135Z,34.88
2018-07-23T16:42:36.243Z,35.03
2018-07-23T16:45:08.948Z,35.25
2018-07-23T16:47:42.232Z,35.64
2018-07-23T16:50:15.787Z,35.86
2018-07-23T16:52:48.314Z,35.72
2018-07-23T16:55:22.474Z,35.50
2018-07-23T16:57:58.407Z,34.89
2018-07-23T17:00:34.306Z,34.79
2018-07-23T17:03:07.593Z,34.75
2018-07-23T17:05:45.628Z,34.52
2018-07-23T17:08:22.052Z,34.39
2018-07-23T17:10:54.914Z,33.56
2018-07-23T17:13:34.718Z,33.18
2018-07-23T17:16:29.193Z,33.73
2018-07-23T17:19:02.975Z,33.51
2018-07-23T17:21:36.507Z,33.84
2018-07-23T17:24:09.457Z,33.82
2018-07-23T17:26:42.645Z,33.38
2018-07-23T17:29:16.107Z,33.10
2018-07-23T17:31:48.973Z,32.99
2018-07-23T17:34:21.744Z,33.17
2018-07-23T17:36:55.538Z,33.14
2018-07-23T17:39:33.207Z,33.00
2018-07-23T17:42:06.829Z,33.00
2018-07-23T17:44:42.791Z,32.91
2018-07-23T17:47:15.852Z,32.85
2018-07-23T17:49:49.988Z,32.15
2018-07-23T17:52:25.742Z,32.11
2018-07-23T17:55:00.320Z,32.27
2018-07-23T17:57:35.537Z,32.18
2018-07-23T18:00:09.852Z,32.15
2018-07-23T18:02:48.534Z,32.12
2018-07-23T18:05:22.802Z,32.00
2018-07-23T18:07:57.538Z,31.77
2018-07-23T18:10:33.985Z,31.69
2018-07-23T18:13:16.385Z,31.51
2018-07-23T18:15:48.918Z,31.44
2018-07-23T18:18:23.018Z,31.35
2018-07-23T18:20:56.961Z,31.01
2018-07-23T18:23:33.459Z,31.02
2018-07-23T18:26:08.849Z,30.74
2018-07-23T18:28:44.039Z,30.52
2018-07-23T18:31:17.795Z,30.31
2018-07-23T18:33:50.743Z,30.23
2018-07-23T18:36:24.194Z,29.87
2018-07-23T18:39:01.150Z,29.58
2018-07-23T18:41:36.953Z,29.40
2018-07-23T18:44:15.720Z,29.16
2018-07-23T18:46:55.719Z,28.98
2018-07-23T18:49:52.240Z,28.83
2018-07-23T18:52:29.622Z,28.69
2018-07-23T18:55:03.264Z,28.55
2018-07-23T18:57:35.665Z,28.41
2018-07-23T19:00:08.146Z,28.26
2018-07-23T19:02:41.518Z,28.11
2018-07-23T19:05:15.516Z,27.94
2018-07-23T19:07:49.766Z,27.79
2018-07-23T19:10:22.926Z,27.63
2018-07-23T19:12:57.311Z,27.46
2018-07-23T19:15:32.525Z,27.29
2018-07-23T19:18:06.860Z,27.10
2018-07-23T19:20:48.160Z,26.91
2018-07-23T19:23:27.326Z,26.72
2018-07-23T19:26:02.956Z,26.52
2018-07-23T19:28:39.880Z,26.34
2018-07-23T19:31:13.550Z,26.13
2018-07-23T19:33:46.263Z,25.93
2018-07-23T19:36:19.077Z,25.73
2018-07-23T19:38:53.680Z,25.50
2018-07-23T19:41:31.713Z,25.28
2018-07-23T19:44:37.988Z,25.07
2018-07-23T19:47:41.375Z,24.82
2018-07-23T19:50:45.665Z,24.65
2018-07-23T19:53:59.680Z,24.50
2018-07-23T19:56:40.652Z,24.32
2018-07-23T19:59:20.735Z,24.20
2018-07-23T20:01:54.255Z,24.03
2018-07-23T20:04:28.832Z,23.87
2018-07-23T20:07:03.912Z,23.69
2018-07-23T20:09:37.452Z,23.50
2018-07-23T20:12:16.766Z,23.33
2018-07-23T20:14:53.452Z,23.17
2018-07-23T20:17:29.505Z,23.13
2018-07-23T20:20:09.265Z,23.01
2018-07-23T20:22:55.388Z,22.89
2018-07-23T20:25:30.352Z,22.79
2018-07-23T20:28:07.928Z,22.66
2018-07-23T20:30:54.427Z,22.48
2018-07-23T20:36:04.333Z,22.14
2018-07-23T20:38:37.088Z,21.98
2018-07-23T20:41:11.365Z,21.86
2018-07-23T20:43:46.879Z,21.79
2018-07-23T20:46:20.964Z,21.64
2018-07-23T20:48:54.616Z,21.51
2018-07-23T20:51:32.657Z,21.42
2018-07-23T20:54:08.388Z,21.34
2018-07-23T20:56:41.157Z,21.33
2018-07-23T20:59:15.468Z,21.21
2018-07-23T21:01:50.220Z,21.07
2018-07-23T21:04:26.024Z,20.93
2018-07-23T21:07:00.722Z,20.78
2018-07-23T21:09:34.837Z,20.65
2018-07-23T21:12:09.306Z,20.60
2018-07-23T21:14:41.975Z,20.60
2018-07-23T21:17:16.360Z,20.55
2018-07-23T21:19:48.916Z,20.54
2018-07-23T21:22:22.657Z,20.56
2018-07-23T21:25:00.525Z,20.57
2018-07-23T21:27:34.178Z,20.53
2018-07-23T21:30:09.407Z,20.43
2018-07-23T21:32:44.455Z,20.30
2018-07-23T21:35:18.976Z,20.19
2018-07-23T21:37:53.097Z,20.20
2018-07-23T21:40:26.173Z,20.16
2018-07-23T21:43:00.277Z,20.10
2018-07-23T21:45:34.249Z,20.05
2018-07-23T21:48:08.123Z,19.99
2018-07-23T21:50:41.893Z,19.93
2018-07-23T21:53:19.373Z,19.84
2018-07-23T21:55:55.327Z,19.80
2018-07-23T21:58:28.261Z,19.82
2018-07-23T22:01:01.515Z,19.91
2018-07-23T22:03:35.774Z,20.04
2018-07-23T22:06:09.550Z,20.01
2018-07-23T22:08:45.401Z,20.04
2018-07-23T22:11:19.127Z,19.98
2018-07-23T22:13:51.792Z,19.99
2018-07-23T22:16:25.362Z,20.07
2018-07-23T22:18:58.838Z,20.17
2018-07-23T22:21:32.009Z,20.03
2018-07-23T22:24:06.085Z,19.89
2018-07-23T22:26:38.675Z,19.79
2018-07-23T22:29:12.216Z,19.68
2018-07-23T22:31:45.260Z,19.62
2018-07-23T22:34:18.056Z,19.56
2018-07-23T22:36:52.598Z,19.40
2018-07-23T22:39:28.380Z,19.27
2018-07-23T22:42:01.863Z,19.20
2018-07-23T22:44:37.060Z,19.25
2018-07-23T22:47:13.664Z,19.30
2018-07-23T22:49:46.348Z,19.24
2018-07-23T22:52:25.023Z,19.20
2018-07-23T22:54:57.761Z,19.19
2018-07-23T22:57:33.298Z,19.24
2018-07-23T23:00:08.925Z,19.23
2018-07-23T23:02:42.488Z,19.20
2018-07-23T23:05:17.549Z,19.15
2018-07-23T23:07:50.941Z,19.04
2018-07-23T23:10:26.385Z,19.05
2018-07-23T23:13:01.554Z,18.87
2018-07-23T23:15:34.211Z,18.71
2018-07-23T23:18:06.811Z,18.66
2018-07-23T23:20:42.512Z,18.63
2018-07-23T23:23:16.065Z,18.59
2018-07-23T23:25:48.751Z,18.53
2018-07-23T23:28:22.766Z,18.45
2018-07-23T23:30:59.256Z,18.43
2018-07-23T23:33:32.884Z,18.41
2018-07-23T23:36:06.832Z,18.38
2018-07-23T23:38:40.551Z,18.31
2018-07-23T23:41:13.354Z,18.33
2018-07-23T23:43:48.861Z,18.22
2018-07-23T23:46:21.809Z,18.11
2018-07-23T23:48:55.269Z,18.02
2018-07-23T23:51:28.232Z,17.94
2018-07-23T23:54:02.632Z,17.89
2018-07-23T23:56:35.279Z,17.84
2018-07-23T23:59:09.258Z,17.84
